KSJCKRBL

Guest
Details From KSJC - San Jose Norman Y Mineta Intl
To KRBL - Red Bluff Muni
Flight Number -
Tags decoded
Created
Modified
Stats Distance 217 nm / 402 km
Max Altitude 0 ft / 0 m
Waypoints 4
Social Downloads 0
Likes 0
Share VATSIM

Download

Looking for another format? Having issues loading an existing format? Contact us
Advertisement - Login to hide

Notes

Requested: KSJC SJC9 GILRO SAC KRBL Unmatched points: SJC9

Route

KSJC GILRO SAC KRBL

ID Type Via Altitude Latitude Longitude Leg Dist Tot Dist Heading (true) Name
O KSJC APT - 0 ft / 0 m 37.36237˚ -121.92954˚ - 0 nm - San Jose Norman Y Mineta Intl
GILRO FIX - 0 ft / 0 m 37.04628˚ -121.56854˚ 25 nm 25 nm 138° / 138° -
SAC VOR - 0 ft / 0 m 38.44375˚ -121.55164˚ 83 nm 109 nm 1° / 1° SACRAMENTO VORTAC
O KRBL APT - 0 ft / 0 m 40.15068˚ -122.25230˚ 107 nm 217 nm 343° / 342° Red Bluff Muni

Altitude Profile

Advertisement - Login to hide

Weather


0- 5 10 15 20 25 30 35+ Temperature / ° C

Clouds and Precipitation
Forecast for 2017-12-17 12:00 UTC. Updated an hour ago

Ground ~20,000 ft ~40,000 ft Winds

KSJC

Details ICAO KSJC (SJC)
Name San Jose Norman Y Mineta Intl
Region United States
Timezone America/Los_Angeles (UTC-8.0)
Stats Elevation 62 ft / 19 m (AMSL)
Location 37.362375° -121.929544°
Runways 3
Magnetic Variation 13.339° E

METAR

KSJC 170953Z AUTO 27009KT 10SM CLR 12/M06 A2999 RMK AO2 SLP155 T01171061

Decode

TAF

KSJC 170520Z 1706/1806 31009KT P6SM SKC WS020/35030KT FM171630 31012KT P6SM SKC FM180300 24004KT P6SM SKC

Decode

Departure Runways

ID Width Length Bearing (true) Bearing (mag) Surface Threshold Offset Overrun Length
11 98 ft / 30 m 4,600 ft / 1,402 m 138.94° 125.60° Asphalt 0 ft / 0 m 0 ft / 0 m
12L 151 ft / 46 m 11,002 ft / 3,354 m 138.93° 125.59° Concrete 1,306 ft / 398 m 131 ft / 40 m
12R 151 ft / 46 m 11,003 ft / 3,354 m 138.93° 125.59° Concrete 1,302 ft / 397 m 200 ft / 61 m
29 98 ft / 30 m 4,600 ft / 1,402 m 318.94° 305.60° Asphalt 0 ft / 0 m 0 ft / 0 m
30L 151 ft / 46 m 11,003 ft / 3,354 m 318.95° 305.61° Concrete 2,543 ft / 775 m 98 ft / 30 m
30R 151 ft / 46 m 11,002 ft / 3,354 m 318.95° 305.61° Concrete 2,536 ft / 773 m 151 ft / 46 m

KRBL

Details ICAO KRBL
Name Red Bluff Muni
Region United States
Timezone America/Los_Angeles (UTC-8.0)
Stats Elevation 349 ft / 106 m (AMSL)
Location 40.150679° -122.252298°
Runways 1
Magnetic Variation 13.999° E

METAR

KRBL 170954Z AUTO 35018G24KT 10SM CLR 11/M08 A3012 RMK AO2 PK WND 35029/0910 SLP199 T01111078

Decode

TAF

KRBL 170533Z 1706/1806 34016G29KT P6SM SKC FM171000 35010KT P6SM SKC FM171600 36017G24KT P6SM SKC

Decode

Destination Runways

ID Width Length Bearing (true) Bearing (mag) Surface Threshold Offset Overrun Length
15 100 ft / 30 m 5,710 ft / 1,740 m 168.15° 154.15° Asphalt 0 ft / 0 m 0 ft / 0 m
33 100 ft / 30 m 5,710 ft / 1,740 m 348.15° 334.15° Asphalt 0 ft / 0 m 0 ft / 0 m